sensor_id;sensor_type;location;lat;lon;timestamp;P1;durP1;ratioP1;P2;durP2;ratioP2
23588;SDS011;11972;48.078;11.876;2022-11-15T00:00:38;9.65;;;7.35;;
23588;SDS011;11972;48.078;11.876;2022-11-15T00:04:39;7.90;;;7.10;;
23588;SDS011;11972;48.078;11.876;2022-11-15T00:08:39;7.05;;;6.35;;
23588;SDS011;11972;48.078;11.876;2022-11-15T00:12:40;7.93;;;7.22;;
23588;SDS011;11972;48.078;11.876;2022-11-15T00:16:40;7.70;;;6.85;;
23588;SDS011;11972;48.078;11.876;2022-11-15T00:20:41;9.23;;;6.90;;
23588;SDS011;11972;48.078;11.876;2022-11-15T00:24:41;7.13;;;6.10;;
23588;SDS011;11972;48.078;11.876;2022-11-15T00:28:42;7.53;;;6.40;;
23588;SDS011;11972;48.078;11.876;2022-11-15T00:32:43;7.30;;;6.60;;
23588;SDS011;11972;48.078;11.876;2022-11-15T00:36:43;7.72;;;6.60;;
23588;SDS011;11972;48.078;11.876;2022-11-15T00:40:43;8.15;;;6.85;;
23588;SDS011;11972;48.078;11.876;2022-11-15T00:44:45;7.32;;;6.63;;
23588;SDS011;11972;48.078;11.876;2022-11-15T00:48:45;8.00;;;7.20;;
23588;SDS011;11972;48.078;11.876;2022-11-15T00:52:45;8.32;;;7.43;;
23588;SDS011;11972;48.078;11.876;2022-11-15T00:56:46;7.25;;;6.53;;
23588;SDS011;11972;48.078;11.876;2022-11-15T01:00:46;9.82;;;7.15;;
23588;SDS011;11972;48.078;11.876;2022-11-15T01:04:47;9.25;;;6.88;;
23588;SDS011;11972;48.078;11.876;2022-11-15T01:08:47;8.80;;;7.20;;
23588;SDS011;11972;48.078;11.876;2022-11-15T01:12:48;7.70;;;7.00;;
23588;SDS011;11972;48.078;11.876;2022-11-15T01:16:48;8.13;;;7.32;;
23588;SDS011;11972;48.078;11.876;2022-11-15T01:20:49;8.73;;;6.90;;
23588;SDS011;11972;48.078;11.876;2022-11-15T01:24:49;10.40;;;7.43;;
23588;SDS011;11972;48.078;11.876;2022-11-15T01:28:50;9.85;;;7.00;;
23588;SDS011;11972;48.078;11.876;2022-11-15T01:32:51;9.15;;;7.93;;
23588;SDS011;11972;48.078;11.876;2022-11-15T01:36:51;8.07;;;7.22;;
23588;SDS011;11972;48.078;11.876;2022-11-15T01:40:52;8.23;;;7.20;;
23588;SDS011;11972;48.078;11.876;2022-11-15T01:44:52;7.95;;;7.15;;
23588;SDS011;11972;48.078;11.876;2022-11-15T01:48:55;8.35;;;6.60;;
23588;SDS011;11972;48.078;11.876;2022-11-15T01:52:59;8.25;;;7.38;;
23588;SDS011;11972;48.078;11.876;2022-11-15T01:57:01;8.15;;;6.63;;
23588;SDS011;11972;48.078;11.876;2022-11-15T02:01:06;7.03;;;6.05;;
23588;SDS011;11972;48.078;11.876;2022-11-15T02:05:07;7.75;;;6.78;;
23588;SDS011;11972;48.078;11.876;2022-11-15T02:09:08;7.32;;;6.10;;
23588;SDS011;11972;48.078;11.876;2022-11-15T02:13:08;9.80;;;6.32;;
23588;SDS011;11972;48.078;11.876;2022-11-15T02:38:17;6.75;;;6.05;;
23588;SDS011;11972;48.078;11.876;2022-11-15T02:42:25;5.93;;;5.30;;
23588;SDS011;11972;48.078;11.876;2022-11-15T02:47:01;5.82;;;5.25;;
23588;SDS011;11972;48.078;11.876;2022-11-15T02:51:12;6.28;;;5.10;;
23588;SDS011;11972;48.078;11.876;2022-11-15T03:12:54;5.60;;;5.10;;
23588;SDS011;11972;48.078;11.876;2022-11-15T03:21:22;5.72;;;5.22;;
23588;SDS011;11972;48.078;11.876;2022-11-15T03:25:24;5.82;;;4.90;;
23588;SDS011;11972;48.078;11.876;2022-11-15T03:29:27;5.47;;;4.97;;
23588;SDS011;11972;48.078;11.876;2022-11-15T03:33:36;5.28;;;4.78;;
23588;SDS011;11972;48.078;11.876;2022-11-15T03:37:37;4.72;;;4.32;;
23588;SDS011;11972;48.078;11.876;2022-11-15T03:41:46;4.13;;;3.70;;
23588;SDS011;11972;48.078;11.876;2022-11-15T03:45:53;3.67;;;3.38;;
23588;SDS011;11972;48.078;11.876;2022-11-15T03:49:59;3.75;;;3.45;;
23588;SDS011;11972;48.078;11.876;2022-11-15T03:54:04;3.13;;;2.83;;
23588;SDS011;11972;48.078;11.876;2022-11-15T03:58:05;4.60;;;2.70;;
23588;SDS011;11972;48.078;11.876;2022-11-15T04:02:06;2.40;;;2.20;;
23588;SDS011;11972;48.078;11.876;2022-11-15T04:06:06;2.38;;;2.17;;
23588;SDS011;11972;48.078;11.876;2022-11-15T04:10:07;3.22;;;2.17;;
23588;SDS011;11972;48.078;11.876;2022-11-15T04:14:09;2.22;;;2.00;;
23588;SDS011;11972;48.078;11.876;2022-11-15T04:18:10;2.70;;;2.28;;
23588;SDS011;11972;48.078;11.876;2022-11-15T04:22:10;3.83;;;2.50;;
23588;SDS011;11972;48.078;11.876;2022-11-15T04:26:29;2.95;;;2.67;;
23588;SDS011;11972;48.078;11.876;2022-11-15T04:30:29;3.72;;;3.00;;
23588;SDS011;11972;48.078;11.876;2022-11-15T04:34:29;3.58;;;3.28;;
23588;SDS011;11972;48.078;11.876;2022-11-15T04:38:30;2.80;;;2.60;;
23588;SDS011;11972;48.078;11.876;2022-11-15T04:42:31;3.42;;;3.03;;
23588;SDS011;11972;48.078;11.876;2022-11-15T04:46:31;4.35;;;2.95;;
23588;SDS011;11972;48.078;11.876;2022-11-15T04:50:32;5.78;;;3.33;;
23588;SDS011;11972;48.078;11.876;2022-11-15T04:54:32;3.80;;;3.40;;
23588;SDS011;11972;48.078;11.876;2022-11-15T04:58:32;3.50;;;2.97;;
23588;SDS011;11972;48.078;11.876;2022-11-15T05:02:33;2.92;;;2.67;;
23588;SDS011;11972;48.078;11.876;2022-11-15T05:10:52;2.80;;;2.60;;
23588;SDS011;11972;48.078;11.876;2022-11-15T05:14:53;2.97;;;2.78;;
23588;SDS011;11972;48.078;11.876;2022-11-15T05:18:53;2.75;;;2.55;;
23588;SDS011;11972;48.078;11.876;2022-11-15T05:22:54;3.17;;;2.70;;
23588;SDS011;11972;48.078;11.876;2022-11-15T05:26:55;3.58;;;2.60;;
23588;SDS011;11972;48.078;11.876;2022-11-15T05:35:12;2.55;;;2.30;;
23588;SDS011;11972;48.078;11.876;2022-11-15T05:39:19;2.58;;;2.38;;
23588;SDS011;11972;48.078;11.876;2022-11-15T05:43:20;4.68;;;3.47;;
23588;SDS011;11972;48.078;11.876;2022-11-15T05:47:21;2.70;;;2.50;;
23588;SDS011;11972;48.078;11.876;2022-11-15T05:51:25;2.90;;;2.60;;
23588;SDS011;11972;48.078;11.876;2022-11-15T05:55:28;2.83;;;2.63;;
23588;SDS011;11972;48.078;11.876;2022-11-15T05:59:29;2.92;;;2.22;;
23588;SDS011;11972;48.078;11.876;2022-11-15T06:03:31;3.50;;;2.33;;
23588;SDS011;11972;48.078;11.876;2022-11-15T06:07:32;2.92;;;2.72;;
23588;SDS011;11972;48.078;11.876;2022-11-15T06:11:32;2.92;;;2.53;;
23588;SDS011;11972;48.078;11.876;2022-11-15T06:15:32;2.47;;;2.28;;
23588;SDS011;11972;48.078;11.876;2022-11-15T06:19:34;2.30;;;2.10;;
23588;SDS011;11972;48.078;11.876;2022-11-15T06:23:35;2.20;;;2.00;;
23588;SDS011;11972;48.078;11.876;2022-11-15T06:27:35;3.25;;;2.08;;
23588;SDS011;11972;48.078;11.876;2022-11-15T06:31:36;1.90;;;1.75;;
23588;SDS011;11972;48.078;11.876;2022-11-15T06:35:36;2.95;;;2.00;;
23588;SDS011;11972;48.078;11.876;2022-11-15T06:39:36;2.20;;;2.00;;
23588;SDS011;11972;48.078;11.876;2022-11-15T06:43:37;3.15;;;1.88;;
23588;SDS011;11972;48.078;11.876;2022-11-15T06:47:45;2.20;;;1.90;;
23588;SDS011;11972;48.078;11.876;2022-11-15T06:51:46;2.33;;;2.13;;
23588;SDS011;11972;48.078;11.876;2022-11-15T06:55:47;1.85;;;1.75;;
23588;SDS011;11972;48.078;11.876;2022-11-15T06:59:48;2.17;;;2.08;;
23588;SDS011;11972;48.078;11.876;2022-11-15T07:03:48;2.08;;;1.88;;
23588;SDS011;11972;48.078;11.876;2022-11-15T07:07:52;4.53;;;2.13;;
23588;SDS011;11972;48.078;11.876;2022-11-15T07:11:53;2.40;;;2.20;;
23588;SDS011;11972;48.078;11.876;2022-11-15T07:15:54;3.65;;;2.08;;
23588;SDS011;11972;48.078;11.876;2022-11-15T07:19:54;2.75;;;2.00;;
23588;SDS011;11972;48.078;11.876;2022-11-15T07:23:55;1.90;;;1.80;;
23588;SDS011;11972;48.078;11.876;2022-11-15T07:27:58;1.70;;;1.60;;
23588;SDS011;11972;48.078;11.876;2022-11-15T07:31:59;1.77;;;1.60;;
23588;SDS011;11972;48.078;11.876;2022-11-15T07:36:00;1.70;;;1.60;;
23588;SDS011;11972;48.078;11.876;2022-11-15T07:40:05;1.90;;;1.65;;
23588;SDS011;11972;48.078;11.876;2022-11-15T07:44:05;1.75;;;1.60;;
23588;SDS011;11972;48.078;11.876;2022-11-15T07:48:06;2.25;;;1.90;;
23588;SDS011;11972;48.078;11.876;2022-11-15T07:52:06;1.55;;;1.40;;
23588;SDS011;11972;48.078;11.876;2022-11-15T07:56:07;2.47;;;1.52;;
23588;SDS011;11972;48.078;11.876;2022-11-15T08:00:07;1.90;;;1.70;;
23588;SDS011;11972;48.078;11.876;2022-11-15T08:04:09;2.63;;;2.10;;
23588;SDS011;11972;48.078;11.876;2022-11-15T08:08:11;2.08;;;1.88;;
23588;SDS011;11972;48.078;11.876;2022-11-15T08:12:11;3.17;;;2.83;;
23588;SDS011;11972;48.078;11.876;2022-11-15T08:16:11;2.10;;;1.90;;
23588;SDS011;11972;48.078;11.876;2022-11-15T08:20:12;3.25;;;2.15;;
23588;SDS011;11972;48.078;11.876;2022-11-15T08:24:13;3.25;;;1.88;;
23588;SDS011;11972;48.078;11.876;2022-11-15T08:28:15;2.40;;;1.52;;
23588;SDS011;11972;48.078;11.876;2022-11-15T08:32:17;2.17;;;1.98;;
23588;SDS011;11972;48.078;11.876;2022-11-15T08:36:17;2.10;;;1.90;;
23588;SDS011;11972;48.078;11.876;2022-11-15T08:40:18;2.33;;;1.77;;
23588;SDS011;11972;48.078;11.876;2022-11-15T08:44:19;3.25;;;2.42;;
23588;SDS011;11972;48.078;11.876;2022-11-15T08:48:20;1.67;;;1.58;;
23588;SDS011;11972;48.078;11.876;2022-11-15T08:52:20;3.25;;;1.70;;
23588;SDS011;11972;48.078;11.876;2022-11-15T08:56:20;1.70;;;1.60;;
23588;SDS011;11972;48.078;11.876;2022-11-15T09:00:21;9.85;;;5.40;;
23588;SDS011;11972;48.078;11.876;2022-11-15T09:04:21;2.28;;;1.73;;
23588;SDS011;11972;48.078;11.876;2022-11-15T09:08:21;1.52;;;1.42;;
23588;SDS011;11972;48.078;11.876;2022-11-15T09:12:22;3.67;;;2.30;;
23588;SDS011;11972;48.078;11.876;2022-11-15T09:16:22;1.83;;;1.65;;
23588;SDS011;11972;48.078;11.876;2022-11-15T09:20:23;1.30;;;1.20;;
23588;SDS011;11972;48.078;11.876;2022-11-15T09:24:23;1.42;;;1.33;;
23588;SDS011;11972;48.078;11.876;2022-11-15T09:28:23;1.50;;;1.40;;
23588;SDS011;11972;48.078;11.876;2022-11-15T09:32:27;2.20;;;1.50;;
23588;SDS011;11972;48.078;11.876;2022-11-15T09:36:29;1.70;;;1.60;;
23588;SDS011;11972;48.078;11.876;2022-11-15T09:40:30;1.85;;;1.75;;
23588;SDS011;11972;48.078;11.876;2022-11-15T09:44:41;1.60;;;1.50;;
23588;SDS011;11972;48.078;11.876;2022-11-15T09:48:49;2.28;;;1.50;;
23588;SDS011;11972;48.078;11.876;2022-11-15T09:52:53;2.00;;;1.80;;
23588;SDS011;11972;48.078;11.876;2022-11-15T09:57:09;2.97;;;1.75;;
23588;SDS011;11972;48.078;11.876;2022-11-15T10:05:47;2.08;;;1.75;;
23588;SDS011;11972;48.078;11.876;2022-11-15T10:09:55;3.05;;;1.83;;
23588;SDS011;11972;48.078;11.876;2022-11-15T10:14:02;1.70;;;1.48;;
23588;SDS011;11972;48.078;11.876;2022-11-15T10:18:17;1.98;;;1.70;;
23588;SDS011;11972;48.078;11.876;2022-11-15T10:26:47;1.70;;;1.60;;
23588;SDS011;11972;48.078;11.876;2022-11-15T10:30:49;2.65;;;1.60;;
23588;SDS011;11972;48.078;11.876;2022-11-15T10:34:52;2.17;;;1.40;;
23588;SDS011;11972;48.078;11.876;2022-11-15T10:38:53;2.08;;;1.88;;
23588;SDS011;11972;48.078;11.876;2022-11-15T10:43:05;2.97;;;1.63;;
23588;SDS011;11972;48.078;11.876;2022-11-15T10:47:28;1.70;;;1.60;;
23588;SDS011;11972;48.078;11.876;2022-11-15T10:51:31;2.28;;;1.70;;
23588;SDS011;11972;48.078;11.876;2022-11-15T10:55:31;1.75;;;1.40;;
23588;SDS011;11972;48.078;11.876;2022-11-15T10:59:35;1.70;;;1.60;;
23588;SDS011;11972;48.078;11.876;2022-11-15T11:03:37;2.03;;;1.70;;
23588;SDS011;11972;48.078;11.876;2022-11-15T11:07:39;2.88;;;1.80;;
23588;SDS011;11972;48.078;11.876;2022-11-15T11:11:44;2.03;;;1.80;;
23588;SDS011;11972;48.078;11.876;2022-11-15T11:15:46;2.00;;;1.80;;
23588;SDS011;11972;48.078;11.876;2022-11-15T11:29:05;1.48;;;1.23;;
23588;SDS011;11972;48.078;11.876;2022-11-15T11:33:33;2.03;;;1.42;;
23588;SDS011;11972;48.078;11.876;2022-11-15T11:38:04;1.40;;;1.30;;
23588;SDS011;11972;48.078;11.876;2022-11-15T11:50:49;1.85;;;1.58;;
23588;SDS011;11972;48.078;11.876;2022-11-15T11:59:07;2.08;;;1.80;;
23588;SDS011;11972;48.078;11.876;2022-11-15T12:07:23;1.73;;;1.63;;
23588;SDS011;11972;48.078;11.876;2022-11-15T12:15:30;1.48;;;1.35;;
23588;SDS011;11972;48.078;11.876;2022-11-15T12:19:37;1.58;;;1.10;;
23588;SDS011;11972;48.078;11.876;2022-11-15T12:23:43;1.63;;;1.17;;
23588;SDS011;11972;48.078;11.876;2022-11-15T12:36:51;2.28;;;1.40;;
23588;SDS011;11972;48.078;11.876;2022-11-15T12:49:45;1.50;;;1.40;;
23588;SDS011;11972;48.078;11.876;2022-11-15T12:53:46;1.23;;;1.13;;
23588;SDS011;11972;48.078;11.876;2022-11-15T12:57:46;1.67;;;1.58;;
23588;SDS011;11972;48.078;11.876;2022-11-15T13:05:52;1.52;;;1.42;;
23588;SDS011;11972;48.078;11.876;2022-11-15T13:09:56;1.90;;;1.70;;
23588;SDS011;11972;48.078;11.876;2022-11-15T13:13:56;1.50;;;1.40;;
23588;SDS011;11972;48.078;11.876;2022-11-15T13:17:56;2.93;;;2.00;;
23588;SDS011;11972;48.078;11.876;2022-11-15T13:21:57;2.17;;;1.50;;
23588;SDS011;11972;48.078;11.876;2022-11-15T13:26:23;2.08;;;1.88;;
23588;SDS011;11972;48.078;11.876;2022-11-15T13:30:25;1.85;;;1.75;;
23588;SDS011;11972;48.078;11.876;2022-11-15T13:34:32;3.67;;;2.22;;
23588;SDS011;11972;48.078;11.876;2022-11-15T13:38:35;3.63;;;3.33;;
23588;SDS011;11972;48.078;11.876;2022-11-15T13:42:37;4.20;;;2.22;;
23588;SDS011;11972;48.078;11.876;2022-11-15T13:46:37;2.40;;;2.30;;
23588;SDS011;11972;48.078;11.876;2022-11-15T13:50:38;3.03;;;2.00;;
23588;SDS011;11972;48.078;11.876;2022-11-15T13:59:08;3.25;;;2.47;;
23588;SDS011;11972;48.078;11.876;2022-11-15T14:03:19;3.03;;;2.47;;
23588;SDS011;11972;48.078;11.876;2022-11-15T14:07:28;3.80;;;2.33;;
23588;SDS011;11972;48.078;11.876;2022-11-15T14:11:30;3.60;;;2.30;;
23588;SDS011;11972;48.078;11.876;2022-11-15T14:15:32;3.42;;;2.30;;
23588;SDS011;11972;48.078;11.876;2022-11-15T14:19:35;2.88;;;2.42;;
23588;SDS011;11972;48.078;11.876;2022-11-15T14:23:36;2.78;;;2.47;;
23588;SDS011;11972;48.078;11.876;2022-11-15T14:27:36;2.78;;;2.58;;
23588;SDS011;11972;48.078;11.876;2022-11-15T14:31:37;3.15;;;2.60;;
23588;SDS011;11972;48.078;11.876;2022-11-15T14:35:40;5.43;;;3.15;;
23588;SDS011;11972;48.078;11.876;2022-11-15T14:39:40;4.73;;;3.30;;
23588;SDS011;11972;48.078;11.876;2022-11-15T14:43:41;3.73;;;3.20;;
23588;SDS011;11972;48.078;11.876;2022-11-15T14:47:41;4.50;;;3.60;;
23588;SDS011;11972;48.078;11.876;2022-11-15T14:51:42;4.65;;;3.22;;
23588;SDS011;11972;48.078;11.876;2022-11-15T14:55:43;3.55;;;3.10;;
23588;SDS011;11972;48.078;11.876;2022-11-15T14:59:43;4.05;;;3.38;;
23588;SDS011;11972;48.078;11.876;2022-11-15T15:03:44;3.80;;;2.88;;
23588;SDS011;11972;48.078;11.876;2022-11-15T15:07:44;3.45;;;2.53;;
23588;SDS011;11972;48.078;11.876;2022-11-15T15:11:45;2.88;;;2.53;;
23588;SDS011;11972;48.078;11.876;2022-11-15T15:15:46;3.78;;;2.20;;
23588;SDS011;11972;48.078;11.876;2022-11-15T15:19:47;2.70;;;2.50;;
23588;SDS011;11972;48.078;11.876;2022-11-15T15:23:48;8.43;;;3.78;;
23588;SDS011;11972;48.078;11.876;2022-11-15T15:27:48;4.57;;;3.13;;
23588;SDS011;11972;48.078;11.876;2022-11-15T15:31:49;4.20;;;3.53;;
23588;SDS011;11972;48.078;11.876;2022-11-15T15:35:49;6.40;;;4.30;;
23588;SDS011;11972;48.078;11.876;2022-11-15T15:39:51;3.83;;;3.53;;
23588;SDS011;11972;48.078;11.876;2022-11-15T15:43:52;4.68;;;4.28;;
23588;SDS011;11972;48.078;11.876;2022-11-15T15:47:52;4.10;;;3.70;;
23588;SDS011;11972;48.078;11.876;2022-11-15T15:51:53;7.68;;;6.93;;
23588;SDS011;11972;48.078;11.876;2022-11-15T15:55:53;4.88;;;4.45;;
23588;SDS011;11972;48.078;11.876;2022-11-15T15:59:57;5.35;;;4.85;;
23588;SDS011;11972;48.078;11.876;2022-11-15T16:03:57;6.05;;;4.65;;
23588;SDS011;11972;48.078;11.876;2022-11-15T16:07:58;3.90;;;3.60;;
23588;SDS011;11972;48.078;11.876;2022-11-15T16:11:58;7.25;;;5.40;;
23588;SDS011;11972;48.078;11.876;2022-11-15T16:15:58;4.07;;;3.10;;
23588;SDS011;11972;48.078;11.876;2022-11-15T16:20:00;5.80;;;2.30;;
23588;SDS011;11972;48.078;11.876;2022-11-15T16:24:01;3.13;;;2.80;;
23588;SDS011;11972;48.078;11.876;2022-11-15T16:28:02;6.28;;;4.70;;
23588;SDS011;11972;48.078;11.876;2022-11-15T16:32:02;7.88;;;4.68;;
23588;SDS011;11972;48.078;11.876;2022-11-15T16:36:10;4.43;;;3.85;;
23588;SDS011;11972;48.078;11.876;2022-11-15T16:40:29;9.82;;;6.28;;
23588;SDS011;11972;48.078;11.876;2022-11-15T16:44:31;13.38;;;7.10;;
23588;SDS011;11972;48.078;11.876;2022-11-15T16:48:31;18.08;;;8.40;;
23588;SDS011;11972;48.078;11.876;2022-11-15T16:52:33;15.57;;;10.85;;
23588;SDS011;11972;48.078;11.876;2022-11-15T16:56:34;10.23;;;4.82;;
23588;SDS011;11972;48.078;11.876;2022-11-15T17:00:34;7.40;;;4.70;;
23588;SDS011;11972;48.078;11.876;2022-11-15T17:04:35;7.22;;;4.38;;
23588;SDS011;11972;48.078;11.876;2022-11-15T17:08:35;6.10;;;4.30;;
23588;SDS011;11972;48.078;11.876;2022-11-15T17:12:35;6.25;;;4.30;;
23588;SDS011;11972;48.078;11.876;2022-11-15T17:16:36;5.53;;;4.20;;
23588;SDS011;11972;48.078;11.876;2022-11-15T17:20:41;4.93;;;4.20;;
23588;SDS011;11972;48.078;11.876;2022-11-15T17:24:42;9.35;;;5.50;;
23588;SDS011;11972;48.078;11.876;2022-11-15T17:28:42;10.07;;;8.18;;
23588;SDS011;11972;48.078;11.876;2022-11-15T17:32:43;9.38;;;7.32;;
23588;SDS011;11972;48.078;11.876;2022-11-15T17:36:43;8.88;;;7.22;;
23588;SDS011;11972;48.078;11.876;2022-11-15T17:40:43;29.98;;;20.83;;
23588;SDS011;11972;48.078;11.876;2022-11-15T17:44:44;39.17;;;25.77;;
23588;SDS011;11972;48.078;11.876;2022-11-15T17:48:44;41.45;;;27.98;;
23588;SDS011;11972;48.078;11.876;2022-11-15T17:52:45;35.35;;;24.48;;
23588;SDS011;11972;48.078;11.876;2022-11-15T17:56:46;24.08;;;16.65;;
23588;SDS011;11972;48.078;11.876;2022-11-15T18:00:46;28.50;;;20.17;;
23588;SDS011;11972;48.078;11.876;2022-11-15T18:04:47;40.28;;;26.65;;
23588;SDS011;11972;48.078;11.876;2022-11-15T18:08:48;46.42;;;29.08;;
23588;SDS011;11972;48.078;11.876;2022-11-15T18:12:50;49.67;;;30.98;;
23588;SDS011;11972;48.078;11.876;2022-11-15T18:16:50;71.47;;;37.63;;
23588;SDS011;11972;48.078;11.876;2022-11-15T18:20:57;45.55;;;26.55;;
23588;SDS011;11972;48.078;11.876;2022-11-15T18:25:11;26.00;;;17.48;;
23588;SDS011;11972;48.078;11.876;2022-11-15T18:29:14;15.13;;;12.05;;
23588;SDS011;11972;48.078;11.876;2022-11-15T18:33:15;17.80;;;14.38;;
23588;SDS011;11972;48.078;11.876;2022-11-15T18:37:15;15.73;;;12.32;;
23588;SDS011;11972;48.078;11.876;2022-11-15T18:41:17;19.10;;;13.38;;
23588;SDS011;11972;48.078;11.876;2022-11-15T18:45:19;20.13;;;14.80;;
23588;SDS011;11972;48.078;11.876;2022-11-15T18:49:20;16.27;;;12.82;;
23588;SDS011;11972;48.078;11.876;2022-11-15T18:53:20;14.23;;;12.38;;
23588;SDS011;11972;48.078;11.876;2022-11-15T18:57:20;14.50;;;11.57;;
23588;SDS011;11972;48.078;11.876;2022-11-15T19:01:22;15.82;;;9.95;;
23588;SDS011;11972;48.078;11.876;2022-11-15T19:05:27;12.00;;;10.48;;
23588;SDS011;11972;48.078;11.876;2022-11-15T19:09:27;10.63;;;9.32;;
23588;SDS011;11972;48.078;11.876;2022-11-15T19:13:31;11.80;;;9.85;;
23588;SDS011;11972;48.078;11.876;2022-11-15T19:17:32;10.38;;;8.32;;
23588;SDS011;11972;48.078;11.876;2022-11-15T19:21:32;15.32;;;10.00;;
23588;SDS011;11972;48.078;11.876;2022-11-15T19:25:33;22.67;;;15.70;;
23588;SDS011;11972;48.078;11.876;2022-11-15T19:29:33;25.02;;;17.10;;
23588;SDS011;11972;48.078;11.876;2022-11-15T19:33:34;23.15;;;14.23;;
23588;SDS011;11972;48.078;11.876;2022-11-15T19:37:34;24.42;;;15.90;;
23588;SDS011;11972;48.078;11.876;2022-11-15T19:41:35;30.88;;;22.73;;
23588;SDS011;11972;48.078;11.876;2022-11-15T19:45:37;29.95;;;20.02;;
23588;SDS011;11972;48.078;11.876;2022-11-15T19:49:38;28.27;;;21.23;;
23588;SDS011;11972;48.078;11.876;2022-11-15T19:53:38;26.23;;;19.83;;
23588;SDS011;11972;48.078;11.876;2022-11-15T19:57:38;26.83;;;20.70;;
23588;SDS011;11972;48.078;11.876;2022-11-15T20:01:40;23.10;;;17.70;;
23588;SDS011;11972;48.078;11.876;2022-11-15T20:05:41;20.90;;;15.38;;
23588;SDS011;11972;48.078;11.876;2022-11-15T20:09:42;17.05;;;13.10;;
23588;SDS011;11972;48.078;11.876;2022-11-15T20:13:43;14.82;;;11.50;;
23588;SDS011;11972;48.078;11.876;2022-11-15T20:17:43;16.83;;;13.18;;
23588;SDS011;11972;48.078;11.876;2022-11-15T20:21:45;13.18;;;10.90;;
23588;SDS011;11972;48.078;11.876;2022-11-15T20:25:46;13.57;;;11.18;;
23588;SDS011;11972;48.078;11.876;2022-11-15T20:29:46;19.17;;;14.13;;
23588;SDS011;11972;48.078;11.876;2022-11-15T20:33:47;13.75;;;11.10;;
23588;SDS011;11972;48.078;11.876;2022-11-15T20:37:48;12.27;;;9.93;;
23588;SDS011;11972;48.078;11.876;2022-11-15T20:41:48;12.90;;;9.90;;
23588;SDS011;11972;48.078;11.876;2022-11-15T20:45:49;10.93;;;9.07;;
23588;SDS011;11972;48.078;11.876;2022-11-15T20:49:49;11.45;;;8.98;;
23588;SDS011;11972;48.078;11.876;2022-11-15T20:53:49;11.90;;;9.40;;
23588;SDS011;11972;48.078;11.876;2022-11-15T20:57:50;12.32;;;10.13;;
23588;SDS011;11972;48.078;11.876;2022-11-15T21:01:50;9.50;;;8.32;;
23588;SDS011;11972;48.078;11.876;2022-11-15T21:05:51;8.90;;;7.55;;
23588;SDS011;11972;48.078;11.876;2022-11-15T21:09:52;7.70;;;6.90;;
23588;SDS011;11972;48.078;11.876;2022-11-15T21:18:11;7.88;;;6.82;;
23588;SDS011;11972;48.078;11.876;2022-11-15T21:22:13;13.85;;;9.55;;
23588;SDS011;11972;48.078;11.876;2022-11-15T21:26:13;24.63;;;13.90;;
23588;SDS011;11972;48.078;11.876;2022-11-15T21:30:14;30.67;;;17.23;;
23588;SDS011;11972;48.078;11.876;2022-11-15T21:34:15;22.88;;;14.95;;
23588;SDS011;11972;48.078;11.876;2022-11-15T21:38:16;14.93;;;10.75;;
23588;SDS011;11972;48.078;11.876;2022-11-15T21:42:16;12.70;;;9.93;;
23588;SDS011;11972;48.078;11.876;2022-11-15T21:46:16;12.27;;;8.75;;
23588;SDS011;11972;48.078;11.876;2022-11-15T21:50:17;10.35;;;8.45;;
23588;SDS011;11972;48.078;11.876;2022-11-15T21:54:17;10.55;;;9.48;;
23588;SDS011;11972;48.078;11.876;2022-11-15T21:58:18;9.90;;;8.75;;
23588;SDS011;11972;48.078;11.876;2022-11-15T22:02:19;10.15;;;9.07;;
23588;SDS011;11972;48.078;11.876;2022-11-15T22:06:19;9.45;;;8.48;;
23588;SDS011;11972;48.078;11.876;2022-11-15T22:10:19;9.32;;;8.30;;
23588;SDS011;11972;48.078;11.876;2022-11-15T22:14:20;11.55;;;9.90;;
23588;SDS011;11972;48.078;11.876;2022-11-15T22:18:21;11.98;;;9.75;;
23588;SDS011;11972;48.078;11.876;2022-11-15T22:22:22;14.18;;;10.30;;
23588;SDS011;11972;48.078;11.876;2022-11-15T22:26:22;14.05;;;11.70;;
23588;SDS011;11972;48.078;11.876;2022-11-15T22:30:23;14.30;;;11.35;;
23588;SDS011;11972;48.078;11.876;2022-11-15T22:34:23;12.52;;;9.85;;
23588;SDS011;11972;48.078;11.876;2022-11-15T22:38:24;12.30;;;9.68;;
23588;SDS011;11972;48.078;11.876;2022-11-15T22:42:25;13.02;;;10.13;;
23588;SDS011;11972;48.078;11.876;2022-11-15T22:46:25;12.18;;;9.35;;
23588;SDS011;11972;48.078;11.876;2022-11-15T22:50:26;11.13;;;9.95;;
23588;SDS011;11972;48.078;11.876;2022-11-15T22:54:27;11.05;;;9.80;;
23588;SDS011;11972;48.078;11.876;2022-11-15T22:58:29;12.70;;;10.15;;
23588;SDS011;11972;48.078;11.876;2022-11-15T23:02:30;10.95;;;9.70;;
23588;SDS011;11972;48.078;11.876;2022-11-15T23:06:31;11.38;;;9.77;;
23588;SDS011;11972;48.078;11.876;2022-11-15T23:10:31;12.70;;;10.23;;
23588;SDS011;11972;48.078;11.876;2022-11-15T23:14:50;13.82;;;10.07;;
23588;SDS011;11972;48.078;11.876;2022-11-15T23:22:55;13.05;;;10.15;;
23588;SDS011;11972;48.078;11.876;2022-11-15T23:26:57;12.73;;;11.10;;
23588;SDS011;11972;48.078;11.876;2022-11-15T23:31:03;14.32;;;10.18;;
23588;SDS011;11972;48.078;11.876;2022-11-15T23:35:23;14.70;;;9.77;;
23588;SDS011;11972;48.078;11.876;2022-11-15T23:39:23;11.77;;;10.45;;
23588;SDS011;11972;48.078;11.876;2022-11-15T23:43:24;14.88;;;11.88;;
23588;SDS011;11972;48.078;11.876;2022-11-15T23:47:24;15.32;;;11.02;;
23588;SDS011;11972;48.078;11.876;2022-11-15T23:51:25;14.00;;;11.70;;
23588;SDS011;11972;48.078;11.876;2022-11-15T23:55:25;12.02;;;10.65;;
23588;SDS011;11972;48.078;11.876;2022-11-15T23:59:25;14.30;;;11.07;;
